Hlavní strana
METAR-TAF:

METAR-TAF

Letiště :

Bujumbura, Burundi

zeměpisná šířka: 03-19S, zeměpisná délka: 029-19E, výška: 782 m

METAR: chybějící

Čas: 15:31 (13:31 UTC)

Předpověď počasí

Zpráva byla vytvořena před 2 hodinami a 31 minutami, v 11:00 UTC
Předpověď platná od 17 v 12 UTC do 18 v 18 UTC
Jižní vítr 10 kt s nárazy do 20 kt
Viditelnost: 8000 m
Skoro jasno ve výšce 3500 ft
Od 17 v 1600 UTC
Severní vítr 2 kt
Viditelnost: 5000 m
Žádná oblačnost pod 1500 m, nevyskytují se cumulonimby.
zákal
Změna
od 18 v 07 UTC do 18 v 09 UTC
Jižní vítr 15 kt s nárazy do 25 kt
Viditelnost: 7000 m
Skoro jasno ve výšce 3500 ft
Od 18 v 1600 UTC
Jižní vítr 10 kt
Viditelnost: 8000 m

TAF: HBBA 171100Z 1712/1818 18010G20KT 8000 FEW035 FM171600 18010KT 9000 NSC BEMG 1718/1720 00000KT CAVOK BECMG1802/1804 36002KT 5000 HZ NSC BECMG 1807/1809 18015G25KT 7000 FEW035 FM181600 18010KT 8000 NSC

Stav a předpovědi počasí z více než 4 000 letišť (zprávy METAR a TAF).

Červené a žluté tečky na mapě představují dostupné meteorologické stanice.

Když kurzor umístíte na tečku, zobrazí se název stanice.

Pak kliknutím zobrazíte stav a předpověď počasí.

Chcete-li změnit mapu, kliknutím na zelené tlačítko se znaménkem +mapu přiblížíte, kliknutím na zelené tlačítko se znaménkem – mapu oddálíte a kliknutím na zelené šipky přejdete na sousední mapy.


METAR-TAF: